sensor_id;sensor_type;location;lat;lon;timestamp;temperature;humidity
53962;DHT22;39868;53.398;6.564;2024-03-07T00:00:43;8.90;83.00
53962;DHT22;39868;53.398;6.564;2024-03-07T00:03:11;8.80;82.90
53962;DHT22;39868;53.398;6.564;2024-03-07T00:05:38;8.80;82.80
53962;DHT22;39868;53.398;6.564;2024-03-07T00:08:06;8.80;82.80
53962;DHT22;39868;53.398;6.564;2024-03-07T00:10:34;8.80;82.70
53962;DHT22;39868;53.398;6.564;2024-03-07T00:13:03;8.70;82.70
53962;DHT22;39868;53.398;6.564;2024-03-07T00:15:31;8.70;82.70
53962;DHT22;39868;53.398;6.564;2024-03-07T00:17:58;8.70;82.90
53962;DHT22;39868;53.398;6.564;2024-03-07T00:20:29;8.60;82.60
53962;DHT22;39868;53.398;6.564;2024-03-07T00:22:58;8.60;82.60
53962;DHT22;39868;53.398;6.564;2024-03-07T00:25:25;8.50;82.50
53962;DHT22;39868;53.398;6.564;2024-03-07T00:27:53;8.50;82.50
53962;DHT22;39868;53.398;6.564;2024-03-07T00:30:20;8.50;82.60
53962;DHT22;39868;53.398;6.564;2024-03-07T00:32:48;8.40;82.50
53962;DHT22;39868;53.398;6.564;2024-03-07T00:35:16;8.40;82.50
53962;DHT22;39868;53.398;6.564;2024-03-07T00:37:43;8.40;82.50
53962;DHT22;39868;53.398;6.564;2024-03-07T00:40:13;8.30;82.50
53962;DHT22;39868;53.398;6.564;2024-03-07T00:42:41;8.30;82.60
53962;DHT22;39868;53.398;6.564;2024-03-07T00:45:08;8.30;82.70
53962;DHT22;39868;53.398;6.564;2024-03-07T00:47:36;8.20;82.60
53962;DHT22;39868;53.398;6.564;2024-03-07T00:50:05;8.20;82.60
53962;DHT22;39868;53.398;6.564;2024-03-07T00:52:36;8.20;82.70
53962;DHT22;39868;53.398;6.564;2024-03-07T00:55:05;8.20;82.70
53962;DHT22;39868;53.398;6.564;2024-03-07T00:57:32;8.20;82.80
53962;DHT22;39868;53.398;6.564;2024-03-07T01:00:00;8.20;82.80
53962;DHT22;39868;53.398;6.564;2024-03-07T01:02:27;8.10;82.80
53962;DHT22;39868;53.398;6.564;2024-03-07T01:04:55;8.10;82.80
53962;DHT22;39868;53.398;6.564;2024-03-07T01:07:22;8.10;82.90
53962;DHT22;39868;53.398;6.564;2024-03-07T01:09:50;8.10;82.90
53962;DHT22;39868;53.398;6.564;2024-03-07T01:12:18;8.10;82.80
53962;DHT22;39868;53.398;6.564;2024-03-07T01:14:49;8.10;82.90
53962;DHT22;39868;53.398;6.564;2024-03-07T01:17:16;8.10;82.80
53962;DHT22;39868;53.398;6.564;2024-03-07T01:19:44;8.00;82.70
53962;DHT22;39868;53.398;6.564;2024-03-07T01:22:11;8.00;82.60
53962;DHT22;39868;53.398;6.564;2024-03-07T01:24:38;8.00;82.60
53962;DHT22;39868;53.398;6.564;2024-03-07T01:27:06;7.90;82.60
53962;DHT22;39868;53.398;6.564;2024-03-07T01:29:34;7.90;82.60
53962;DHT22;39868;53.398;6.564;2024-03-07T01:32:01;7.80;82.60
53962;DHT22;39868;53.398;6.564;2024-03-07T01:34:30;7.80;82.60
53962;DHT22;39868;53.398;6.564;2024-03-07T01:36:57;7.80;82.60
53962;DHT22;39868;53.398;6.564;2024-03-07T01:39:24;7.70;82.50
53962;DHT22;39868;53.398;6.564;2024-03-07T01:41:51;7.70;82.60
53962;DHT22;39868;53.398;6.564;2024-03-07T01:44:19;7.60;82.50
53962;DHT22;39868;53.398;6.564;2024-03-07T01:46:47;7.60;82.60
53962;DHT22;39868;53.398;6.564;2024-03-07T01:49:17;7.50;82.60
53962;DHT22;39868;53.398;6.564;2024-03-07T01:51:45;7.50;82.60
53962;DHT22;39868;53.398;6.564;2024-03-07T01:54:12;7.50;82.70
53962;DHT22;39868;53.398;6.564;2024-03-07T01:56:40;7.40;82.70
53962;DHT22;39868;53.398;6.564;2024-03-07T01:59:08;7.40;82.70
53962;DHT22;39868;53.398;6.564;2024-03-07T02:01:37;7.40;82.80
53962;DHT22;39868;53.398;6.564;2024-03-07T02:04:04;7.30;82.70
53962;DHT22;39868;53.398;6.564;2024-03-07T02:06:33;7.30;82.80
53962;DHT22;39868;53.398;6.564;2024-03-07T02:09:01;7.30;82.80
53962;DHT22;39868;53.398;6.564;2024-03-07T02:11:30;7.20;82.80
53962;DHT22;39868;53.398;6.564;2024-03-07T02:13:57;7.20;82.80
53962;DHT22;39868;53.398;6.564;2024-03-07T02:16:24;7.20;82.90
53962;DHT22;39868;53.398;6.564;2024-03-07T02:18:52;7.10;82.90
53962;DHT22;39868;53.398;6.564;2024-03-07T02:21:19;7.10;82.90
53962;DHT22;39868;53.398;6.564;2024-03-07T02:23:46;7.10;83.00
53962;DHT22;39868;53.398;6.564;2024-03-07T02:26:14;7.00;83.00
53962;DHT22;39868;53.398;6.564;2024-03-07T02:28:41;7.00;83.00
53962;DHT22;39868;53.398;6.564;2024-03-07T02:31:08;7.00;83.00
53962;DHT22;39868;53.398;6.564;2024-03-07T02:33:36;7.00;83.00
53962;DHT22;39868;53.398;6.564;2024-03-07T02:36:06;7.00;83.00
53962;DHT22;39868;53.398;6.564;2024-03-07T02:38:34;6.90;83.00
53962;DHT22;39868;53.398;6.564;2024-03-07T02:41:01;6.90;83.10
53962;DHT22;39868;53.398;6.564;2024-03-07T02:43:29;6.90;83.10
53962;DHT22;39868;53.398;6.564;2024-03-07T02:45:56;6.80;83.10
53962;DHT22;39868;53.398;6.564;2024-03-07T02:51:30;6.80;83.10
53962;DHT22;39868;53.398;6.564;2024-03-07T02:53:58;6.80;83.10
53962;DHT22;39868;53.398;6.564;2024-03-07T02:56:25;6.70;83.10
53962;DHT22;39868;53.398;6.564;2024-03-07T02:58:52;6.70;83.10
53962;DHT22;39868;53.398;6.564;2024-03-07T03:01:20;6.70;83.70
53962;DHT22;39868;53.398;6.564;2024-03-07T03:03:47;6.70;83.10
53962;DHT22;39868;53.398;6.564;2024-03-07T03:06:14;6.60;83.10
53962;DHT22;39868;53.398;6.564;2024-03-07T03:08:41;6.60;83.10
53962;DHT22;39868;53.398;6.564;2024-03-07T03:11:09;6.60;83.20
53962;DHT22;39868;53.398;6.564;2024-03-07T03:13:42;6.60;83.20
53962;DHT22;39868;53.398;6.564;2024-03-07T03:16:10;6.60;83.30
53962;DHT22;39868;53.398;6.564;2024-03-07T03:18:37;6.50;83.30
53962;DHT22;39868;53.398;6.564;2024-03-07T03:21:04;6.50;83.30
53962;DHT22;39868;53.398;6.564;2024-03-07T03:23:32;6.50;83.30
53962;DHT22;39868;53.398;6.564;2024-03-07T03:26:00;6.50;83.30
53962;DHT22;39868;53.398;6.564;2024-03-07T03:28:27;6.50;83.30
53962;DHT22;39868;53.398;6.564;2024-03-07T03:30:55;6.40;83.30
53962;DHT22;39868;53.398;6.564;2024-03-07T03:33:22;6.40;83.30
53962;DHT22;39868;53.398;6.564;2024-03-07T03:35:49;6.40;83.30
53962;DHT22;39868;53.398;6.564;2024-03-07T03:38:17;6.40;83.30
53962;DHT22;39868;53.398;6.564;2024-03-07T03:40:47;6.40;83.30
53962;DHT22;39868;53.398;6.564;2024-03-07T03:43:14;6.40;83.40
53962;DHT22;39868;53.398;6.564;2024-03-07T03:45:42;6.40;83.40
53962;DHT22;39868;53.398;6.564;2024-03-07T03:48:10;6.40;83.40
53962;DHT22;39868;53.398;6.564;2024-03-07T03:50:37;6.30;83.30
53962;DHT22;39868;53.398;6.564;2024-03-07T03:53:04;6.30;83.30
53962;DHT22;39868;53.398;6.564;2024-03-07T03:55:32;6.30;83.30
53962;DHT22;39868;53.398;6.564;2024-03-07T03:58:00;6.20;83.20
53962;DHT22;39868;53.398;6.564;2024-03-07T04:00:27;6.20;83.20
53962;DHT22;39868;53.398;6.564;2024-03-07T04:02:55;6.20;83.30
53962;DHT22;39868;53.398;6.564;2024-03-07T04:05:23;6.10;83.20
53962;DHT22;39868;53.398;6.564;2024-03-07T04:07:50;6.10;83.20
53962;DHT22;39868;53.398;6.564;2024-03-07T04:10:17;6.10;83.20
53962;DHT22;39868;53.398;6.564;2024-03-07T04:12:45;6.00;83.20
53962;DHT22;39868;53.398;6.564;2024-03-07T04:15:14;6.00;83.20
53962;DHT22;39868;53.398;6.564;2024-03-07T04:17:46;5.90;83.20
53962;DHT22;39868;53.398;6.564;2024-03-07T04:20:14;5.90;83.20
53962;DHT22;39868;53.398;6.564;2024-03-07T04:22:46;5.90;83.30
53962;DHT22;39868;53.398;6.564;2024-03-07T04:25:13;5.80;83.20
53962;DHT22;39868;53.398;6.564;2024-03-07T04:27:42;5.80;83.30
53962;DHT22;39868;53.398;6.564;2024-03-07T04:30:09;5.70;83.30
53962;DHT22;39868;53.398;6.564;2024-03-07T04:32:37;5.70;83.30
53962;DHT22;39868;53.398;6.564;2024-03-07T04:35:06;5.70;83.40
53962;DHT22;39868;53.398;6.564;2024-03-07T04:37:35;5.70;83.50
53962;DHT22;39868;53.398;6.564;2024-03-07T04:40:08;5.60;83.50
53962;DHT22;39868;53.398;6.564;2024-03-07T04:42:47;5.60;83.60
53962;DHT22;39868;53.398;6.564;2024-03-07T04:45:17;5.60;83.60
53962;DHT22;39868;53.398;6.564;2024-03-07T04:47:45;5.60;83.70
53962;DHT22;39868;53.398;6.564;2024-03-07T04:50:14;5.60;83.80
53962;DHT22;39868;53.398;6.564;2024-03-07T04:52:46;5.60;83.80
53962;DHT22;39868;53.398;6.564;2024-03-07T04:55:14;5.60;83.90
53962;DHT22;39868;53.398;6.564;2024-03-07T04:57:42;5.50;83.90
53962;DHT22;39868;53.398;6.564;2024-03-07T05:00:11;5.50;83.90
53962;DHT22;39868;53.398;6.564;2024-03-07T05:02:47;5.50;84.50
53962;DHT22;39868;53.398;6.564;2024-03-07T05:05:15;5.50;84.00
53962;DHT22;39868;53.398;6.564;2024-03-07T05:07:53;5.50;84.00
53962;DHT22;39868;53.398;6.564;2024-03-07T05:10:22;5.50;84.00
53962;DHT22;39868;53.398;6.564;2024-03-07T05:12:50;5.50;84.00
53962;DHT22;39868;53.398;6.564;2024-03-07T05:15:17;5.50;84.00
53962;DHT22;39868;53.398;6.564;2024-03-07T05:17:45;5.50;84.00
53962;DHT22;39868;53.398;6.564;2024-03-07T05:20:12;5.50;84.10
53962;DHT22;39868;53.398;6.564;2024-03-07T05:22:40;5.50;84.10
53962;DHT22;39868;53.398;6.564;2024-03-07T05:25:12;5.40;84.10
53962;DHT22;39868;53.398;6.564;2024-03-07T05:27:39;5.40;84.10
53962;DHT22;39868;53.398;6.564;2024-03-07T05:30:06;5.40;84.10
53962;DHT22;39868;53.398;6.564;2024-03-07T05:32:37;5.40;84.10
53962;DHT22;39868;53.398;6.564;2024-03-07T05:35:05;5.40;84.10
53962;DHT22;39868;53.398;6.564;2024-03-07T05:37:33;5.30;84.10
53962;DHT22;39868;53.398;6.564;2024-03-07T05:40:00;5.30;84.10
53962;DHT22;39868;53.398;6.564;2024-03-07T05:42:30;5.30;84.10
53962;DHT22;39868;53.398;6.564;2024-03-07T05:44:59;5.30;84.20
53962;DHT22;39868;53.398;6.564;2024-03-07T05:47:29;5.30;84.10
53962;DHT22;39868;53.398;6.564;2024-03-07T05:49:57;5.20;84.10
53962;DHT22;39868;53.398;6.564;2024-03-07T05:52:24;5.20;84.10
53962;DHT22;39868;53.398;6.564;2024-03-07T05:54:52;5.20;84.70
53962;DHT22;39868;53.398;6.564;2024-03-07T05:57:19;5.20;84.20
53962;DHT22;39868;53.398;6.564;2024-03-07T05:59:46;5.20;84.20
53962;DHT22;39868;53.398;6.564;2024-03-07T06:02:15;5.10;84.30
53962;DHT22;39868;53.398;6.564;2024-03-07T06:04:43;5.10;84.40
53962;DHT22;39868;53.398;6.564;2024-03-07T06:07:10;5.10;84.50
53962;DHT22;39868;53.398;6.564;2024-03-07T06:09:38;5.10;84.50
53962;DHT22;39868;53.398;6.564;2024-03-07T06:12:05;5.10;84.60
53962;DHT22;39868;53.398;6.564;2024-03-07T06:14:49;5.10;84.70
53962;DHT22;39868;53.398;6.564;2024-03-07T06:17:16;5.10;84.80
53962;DHT22;39868;53.398;6.564;2024-03-07T06:19:48;5.10;85.10
53962;DHT22;39868;53.398;6.564;2024-03-07T06:22:16;5.10;85.20
53962;DHT22;39868;53.398;6.564;2024-03-07T06:24:43;5.10;85.40
53962;DHT22;39868;53.398;6.564;2024-03-07T06:27:10;5.20;85.70
53962;DHT22;39868;53.398;6.564;2024-03-07T06:29:53;5.20;85.80
53962;DHT22;39868;53.398;6.564;2024-03-07T06:32:21;5.20;86.00
53962;DHT22;39868;53.398;6.564;2024-03-07T06:34:50;5.20;86.00
53962;DHT22;39868;53.398;6.564;2024-03-07T06:37:17;5.30;86.20
53962;DHT22;39868;53.398;6.564;2024-03-07T06:39:46;5.30;86.20
53962;DHT22;39868;53.398;6.564;2024-03-07T06:42:13;5.30;86.40
53962;DHT22;39868;53.398;6.564;2024-03-07T06:44:43;5.30;86.30
53962;DHT22;39868;53.398;6.564;2024-03-07T06:47:10;5.40;86.40
53962;DHT22;39868;53.398;6.564;2024-03-07T06:49:37;5.40;86.60
53962;DHT22;39868;53.398;6.564;2024-03-07T06:52:07;5.40;86.70
53962;DHT22;39868;53.398;6.564;2024-03-07T06:54:35;5.40;86.60
53962;DHT22;39868;53.398;6.564;2024-03-07T06:57:03;5.50;86.80
53962;DHT22;39868;53.398;6.564;2024-03-07T06:59:30;5.40;86.70
53962;DHT22;39868;53.398;6.564;2024-03-07T07:01:58;5.50;86.80
53962;DHT22;39868;53.398;6.564;2024-03-07T07:04:26;5.50;86.80
53962;DHT22;39868;53.398;6.564;2024-03-07T07:06:59;5.50;86.70
53962;DHT22;39868;53.398;6.564;2024-03-07T07:09:28;5.50;86.70
53962;DHT22;39868;53.398;6.564;2024-03-07T07:11:55;5.60;86.80
53962;DHT22;39868;53.398;6.564;2024-03-07T07:14:22;5.60;87.40
53962;DHT22;39868;53.398;6.564;2024-03-07T07:16:50;5.60;87.50
53962;DHT22;39868;53.398;6.564;2024-03-07T07:19:17;5.70;87.00
53962;DHT22;39868;53.398;6.564;2024-03-07T07:21:44;5.70;87.00
53962;DHT22;39868;53.398;6.564;2024-03-07T07:24:12;5.70;87.00
53962;DHT22;39868;53.398;6.564;2024-03-07T07:26:39;5.70;86.90
53962;DHT22;39868;53.398;6.564;2024-03-07T07:29:06;5.70;86.90
53962;DHT22;39868;53.398;6.564;2024-03-07T07:31:33;5.70;86.90
53962;DHT22;39868;53.398;6.564;2024-03-07T07:34:01;5.80;87.00
53962;DHT22;39868;53.398;6.564;2024-03-07T07:36:32;5.80;86.90
53962;DHT22;39868;53.398;6.564;2024-03-07T07:38:59;5.80;86.90
53962;DHT22;39868;53.398;6.564;2024-03-07T07:41:27;5.90;86.90
53962;DHT22;39868;53.398;6.564;2024-03-07T07:43:54;5.90;86.90
53962;DHT22;39868;53.398;6.564;2024-03-07T07:46:21;5.90;86.80
53962;DHT22;39868;53.398;6.564;2024-03-07T07:48:49;5.90;86.80
53962;DHT22;39868;53.398;6.564;2024-03-07T07:51:16;6.00;86.80
53962;DHT22;39868;53.398;6.564;2024-03-07T07:53:43;5.90;86.70
53962;DHT22;39868;53.398;6.564;2024-03-07T07:56:14;5.90;86.60
53962;DHT22;39868;53.398;6.564;2024-03-07T07:58:42;6.00;86.70
53962;DHT22;39868;53.398;6.564;2024-03-07T08:01:09;6.00;86.60
53962;DHT22;39868;53.398;6.564;2024-03-07T08:03:37;6.00;87.10
53962;DHT22;39868;53.398;6.564;2024-03-07T08:06:05;6.00;86.50
53962;DHT22;39868;53.398;6.564;2024-03-07T08:08:32;6.00;86.40
53962;DHT22;39868;53.398;6.564;2024-03-07T08:11:00;6.00;86.40
53962;DHT22;39868;53.398;6.564;2024-03-07T08:13:28;6.00;86.40
53962;DHT22;39868;53.398;6.564;2024-03-07T08:15:55;6.00;86.40
53962;DHT22;39868;53.398;6.564;2024-03-07T08:18:23;6.00;86.40
53962;DHT22;39868;53.398;6.564;2024-03-07T08:20:50;6.00;86.30
53962;DHT22;39868;53.398;6.564;2024-03-07T08:23:22;6.00;86.30
53962;DHT22;39868;53.398;6.564;2024-03-07T08:25:52;6.00;86.20
53962;DHT22;39868;53.398;6.564;2024-03-07T08:28:20;5.90;86.20
53962;DHT22;39868;53.398;6.564;2024-03-07T08:30:47;5.90;86.20
53962;DHT22;39868;53.398;6.564;2024-03-07T08:33:14;6.00;86.20
53962;DHT22;39868;53.398;6.564;2024-03-07T08:35:42;6.00;86.20
53962;DHT22;39868;53.398;6.564;2024-03-07T08:38:09;6.00;86.30
53962;DHT22;39868;53.398;6.564;2024-03-07T08:40:37;5.90;86.20
53962;DHT22;39868;53.398;6.564;2024-03-07T08:43:04;5.90;86.20
53962;DHT22;39868;53.398;6.564;2024-03-07T08:45:34;5.90;86.20
53962;DHT22;39868;53.398;6.564;2024-03-07T08:48:03;6.00;86.30
53962;DHT22;39868;53.398;6.564;2024-03-07T08:50:37;6.00;86.30
53962;DHT22;39868;53.398;6.564;2024-03-07T08:53:06;6.00;86.30
53962;DHT22;39868;53.398;6.564;2024-03-07T08:55:33;6.00;86.30
53962;DHT22;39868;53.398;6.564;2024-03-07T08:58:05;6.00;86.30
53962;DHT22;39868;53.398;6.564;2024-03-07T09:00:35;6.00;86.30
53962;DHT22;39868;53.398;6.564;2024-03-07T09:03:05;6.10;86.40
53962;DHT22;39868;53.398;6.564;2024-03-07T09:05:38;6.10;86.40
53962;DHT22;39868;53.398;6.564;2024-03-07T09:08:06;6.10;86.40
53962;DHT22;39868;53.398;6.564;2024-03-07T09:10:34;6.10;86.30
53962;DHT22;39868;53.398;6.564;2024-03-07T09:13:01;6.10;86.40
53962;DHT22;39868;53.398;6.564;2024-03-07T09:15:29;6.20;86.50
53962;DHT22;39868;53.398;6.564;2024-03-07T09:17:56;6.20;86.40
53962;DHT22;39868;53.398;6.564;2024-03-07T09:20:25;6.20;86.40
53962;DHT22;39868;53.398;6.564;2024-03-07T09:22:53;6.30;86.50
53962;DHT22;39868;53.398;6.564;2024-03-07T09:25:22;6.30;86.50
53962;DHT22;39868;53.398;6.564;2024-03-07T09:27:53;6.30;86.50
53962;DHT22;39868;53.398;6.564;2024-03-07T09:30:22;6.40;86.50
53962;DHT22;39868;53.398;6.564;2024-03-07T09:32:54;6.40;86.50
53962;DHT22;39868;53.398;6.564;2024-03-07T09:35:24;6.40;86.60
53962;DHT22;39868;53.398;6.564;2024-03-07T09:37:52;6.50;86.60
53962;DHT22;39868;53.398;6.564;2024-03-07T09:40:21;6.50;86.60
53962;DHT22;39868;53.398;6.564;2024-03-07T09:42:54;6.60;86.60
53962;DHT22;39868;53.398;6.564;2024-03-07T09:45:29;6.60;86.50
53962;DHT22;39868;53.398;6.564;2024-03-07T09:47:57;6.70;86.60
53962;DHT22;39868;53.398;6.564;2024-03-07T09:50:26;6.70;86.50
53962;DHT22;39868;53.398;6.564;2024-03-07T09:52:56;6.70;86.50
53962;DHT22;39868;53.398;6.564;2024-03-07T09:55:25;6.80;86.50
53962;DHT22;39868;53.398;6.564;2024-03-07T09:57:54;6.80;86.40
53962;DHT22;39868;53.398;6.564;2024-03-07T10:00:24;6.80;86.30
53962;DHT22;39868;53.398;6.564;2024-03-07T10:03:02;6.90;86.30
53962;DHT22;39868;53.398;6.564;2024-03-07T10:05:32;6.90;86.30
53962;DHT22;39868;53.398;6.564;2024-03-07T10:08:00;6.90;86.20
53962;DHT22;39868;53.398;6.564;2024-03-07T10:10:29;6.90;86.10
53962;DHT22;39868;53.398;6.564;2024-03-07T10:12:58;6.90;86.00
53962;DHT22;39868;53.398;6.564;2024-03-07T10:15:30;7.00;86.00
53962;DHT22;39868;53.398;6.564;2024-03-07T10:17:58;7.00;85.90
53962;DHT22;39868;53.398;6.564;2024-03-07T10:20:27;7.00;85.90
53962;DHT22;39868;53.398;6.564;2024-03-07T10:22:55;7.10;85.90
53962;DHT22;39868;53.398;6.564;2024-03-07T10:25:24;7.10;85.90
53962;DHT22;39868;53.398;6.564;2024-03-07T10:27:53;7.10;85.80
53962;DHT22;39868;53.398;6.564;2024-03-07T10:30:21;7.10;85.80
53962;DHT22;39868;53.398;6.564;2024-03-07T10:32:57;7.20;85.80
53962;DHT22;39868;53.398;6.564;2024-03-07T10:35:28;7.20;85.70
53962;DHT22;39868;53.398;6.564;2024-03-07T10:37:57;7.20;85.70
53962;DHT22;39868;53.398;6.564;2024-03-07T10:40:34;7.20;85.70
53962;DHT22;39868;53.398;6.564;2024-03-07T10:43:10;7.20;85.60
53962;DHT22;39868;53.398;6.564;2024-03-07T10:45:46;7.30;85.70
53962;DHT22;39868;53.398;6.564;2024-03-07T10:48:19;7.30;85.60
53962;DHT22;39868;53.398;6.564;2024-03-07T10:59:34;7.40;85.60
53962;DHT22;39868;53.398;6.564;2024-03-07T11:04:43;7.50;85.60
53962;DHT22;39868;53.398;6.564;2024-03-07T11:07:12;7.60;85.50
53962;DHT22;39868;53.398;6.564;2024-03-07T11:09:39;7.60;85.40
53962;DHT22;39868;53.398;6.564;2024-03-07T11:12:10;7.60;85.40
53962;DHT22;39868;53.398;6.564;2024-03-07T11:14:39;7.70;85.30
53962;DHT22;39868;53.398;6.564;2024-03-07T11:17:08;7.70;85.30
53962;DHT22;39868;53.398;6.564;2024-03-07T11:19:36;7.80;85.30
53962;DHT22;39868;53.398;6.564;2024-03-07T11:22:04;7.80;85.20
53962;DHT22;39868;53.398;6.564;2024-03-07T11:25:04;7.80;85.10
53962;DHT22;39868;53.398;6.564;2024-03-07T11:27:37;7.80;85.00
53962;DHT22;39868;53.398;6.564;2024-03-07T11:30:10;7.90;85.00
53962;DHT22;39868;53.398;6.564;2024-03-07T11:32:38;7.90;85.00
53962;DHT22;39868;53.398;6.564;2024-03-07T11:35:11;7.90;85.00
53962;DHT22;39868;53.398;6.564;2024-03-07T11:37:43;8.00;85.00
53962;DHT22;39868;53.398;6.564;2024-03-07T11:43:01;8.00;84.90
53962;DHT22;39868;53.398;6.564;2024-03-07T11:45:32;8.10;85.00
53962;DHT22;39868;53.398;6.564;2024-03-07T11:48:19;8.10;85.00
53962;DHT22;39868;53.398;6.564;2024-03-07T11:50:52;8.20;85.00
53962;DHT22;39868;53.398;6.564;2024-03-07T11:53:23;8.20;84.90
53962;DHT22;39868;53.398;6.564;2024-03-07T11:55:50;8.30;84.90
53962;DHT22;39868;53.398;6.564;2024-03-07T11:58:19;8.30;84.80
53962;DHT22;39868;53.398;6.564;2024-03-07T12:00:51;8.30;84.70
53962;DHT22;39868;53.398;6.564;2024-03-07T12:03:20;8.40;84.70
53962;DHT22;39868;53.398;6.564;2024-03-07T12:05:53;8.50;84.70
53962;DHT22;39868;53.398;6.564;2024-03-07T12:08:20;8.50;84.60
53962;DHT22;39868;53.398;6.564;2024-03-07T12:10:52;8.60;84.50
53962;DHT22;39868;53.398;6.564;2024-03-07T12:13:25;8.60;84.40
53962;DHT22;39868;53.398;6.564;2024-03-07T12:15:53;8.70;84.30
53962;DHT22;39868;53.398;6.564;2024-03-07T12:18:23;8.80;84.20
53962;DHT22;39868;53.398;6.564;2024-03-07T12:20:51;8.90;84.10
53962;DHT22;39868;53.398;6.564;2024-03-07T12:23:23;8.90;84.00
53962;DHT22;39868;53.398;6.564;2024-03-07T12:26:05;9.00;84.10
53962;DHT22;39868;53.398;6.564;2024-03-07T12:28:36;9.10;84.00
53962;DHT22;39868;53.398;6.564;2024-03-07T12:31:06;9.10;83.90
53962;DHT22;39868;53.398;6.564;2024-03-07T12:33:43;9.20;83.60
53962;DHT22;39868;53.398;6.564;2024-03-07T12:36:14;9.30;83.40
53962;DHT22;39868;53.398;6.564;2024-03-07T12:38:44;9.30;83.30
53962;DHT22;39868;53.398;6.564;2024-03-07T12:41:11;9.40;83.40
53962;DHT22;39868;53.398;6.564;2024-03-07T12:43:43;9.50;83.10
53962;DHT22;39868;53.398;6.564;2024-03-07T12:46:14;9.50;82.80
53962;DHT22;39868;53.398;6.564;2024-03-07T12:48:45;9.60;82.10
53962;DHT22;39868;53.398;6.564;2024-03-07T12:51:14;9.60;82.20
53962;DHT22;39868;53.398;6.564;2024-03-07T12:53:46;9.70;82.50
53962;DHT22;39868;53.398;6.564;2024-03-07T12:56:14;9.80;82.60
53962;DHT22;39868;53.398;6.564;2024-03-07T12:58:47;9.90;82.20
53962;DHT22;39868;53.398;6.564;2024-03-07T13:01:17;9.90;81.40
53962;DHT22;39868;53.398;6.564;2024-03-07T13:03:46;9.90;80.70
53962;DHT22;39868;53.398;6.564;2024-03-07T13:06:15;10.00;80.20
53962;DHT22;39868;53.398;6.564;2024-03-07T13:08:46;10.00;80.30
53962;DHT22;39868;53.398;6.564;2024-03-07T13:11:14;9.90;80.60
53962;DHT22;39868;53.398;6.564;2024-03-07T13:13:42;9.90;80.80
53962;DHT22;39868;53.398;6.564;2024-03-07T13:16:09;10.00;80.70
53962;DHT22;39868;53.398;6.564;2024-03-07T13:18:38;9.90;80.80
53962;DHT22;39868;53.398;6.564;2024-03-07T13:21:06;9.90;80.40
53962;DHT22;39868;53.398;6.564;2024-03-07T13:23:34;9.90;80.40
53962;DHT22;39868;53.398;6.564;2024-03-07T13:26:03;9.90;80.40
53962;DHT22;39868;53.398;6.564;2024-03-07T13:28:36;9.90;80.50
53962;DHT22;39868;53.398;6.564;2024-03-07T13:31:04;9.90;80.70
53962;DHT22;39868;53.398;6.564;2024-03-07T13:33:31;9.90;80.70
53962;DHT22;39868;53.398;6.564;2024-03-07T13:36:00;9.90;80.60
53962;DHT22;39868;53.398;6.564;2024-03-07T13:38:28;10.00;80.90
53962;DHT22;39868;53.398;6.564;2024-03-07T13:40:56;10.00;80.90
53962;DHT22;39868;53.398;6.564;2024-03-07T13:43:24;10.10;81.00
53962;DHT22;39868;53.398;6.564;2024-03-07T13:45:51;10.10;81.20
53962;DHT22;39868;53.398;6.564;2024-03-07T13:48:18;10.10;81.20
53962;DHT22;39868;53.398;6.564;2024-03-07T13:50:47;10.10;81.20
53962;DHT22;39868;53.398;6.564;2024-03-07T13:53:27;10.20;81.10
53962;DHT22;39868;53.398;6.564;2024-03-07T13:56:28;10.20;80.60
53962;DHT22;39868;53.398;6.564;2024-03-07T14:01:44;10.20;80.50
53962;DHT22;39868;53.398;6.564;2024-03-07T14:07:42;10.30;80.30
53962;DHT22;39868;53.398;6.564;2024-03-07T14:22:07;10.50;80.30
53962;DHT22;39868;53.398;6.564;2024-03-07T14:25:09;10.50;80.30
53962;DHT22;39868;53.398;6.564;2024-03-07T14:33:08;10.60;79.80
53962;DHT22;39868;53.398;6.564;2024-03-07T14:35:58;10.60;79.20
53962;DHT22;39868;53.398;6.564;2024-03-07T14:38:28;10.50;79.30
53962;DHT22;39868;53.398;6.564;2024-03-07T14:40:59;10.50;79.10
53962;DHT22;39868;53.398;6.564;2024-03-07T14:43:27;10.50;79.00
53962;DHT22;39868;53.398;6.564;2024-03-07T14:45:55;10.40;78.80
53962;DHT22;39868;53.398;6.564;2024-03-07T14:48:23;10.30;78.90
53962;DHT22;39868;53.398;6.564;2024-03-07T14:50:51;10.30;79.10
53962;DHT22;39868;53.398;6.564;2024-03-07T14:53:19;10.30;79.10
53962;DHT22;39868;53.398;6.564;2024-03-07T14:55:50;10.20;78.90
53962;DHT22;39868;53.398;6.564;2024-03-07T14:58:17;10.10;79.20
53962;DHT22;39868;53.398;6.564;2024-03-07T15:00:44;10.10;79.50
53962;DHT22;39868;53.398;6.564;2024-03-07T15:03:25;10.10;79.70
53962;DHT22;39868;53.398;6.564;2024-03-07T15:05:57;10.00;79.90
53962;DHT22;39868;53.398;6.564;2024-03-07T15:08:26;10.10;80.10
53962;DHT22;39868;53.398;6.564;2024-03-07T15:10:59;10.00;80.20
53962;DHT22;39868;53.398;6.564;2024-03-07T15:13:30;10.00;80.10
53962;DHT22;39868;53.398;6.564;2024-03-07T15:15:58;10.00;80.30
53962;DHT22;39868;53.398;6.564;2024-03-07T15:18:26;10.00;80.40
53962;DHT22;39868;53.398;6.564;2024-03-07T15:20:55;9.90;80.50
53962;DHT22;39868;53.398;6.564;2024-03-07T15:23:22;9.90;80.70
53962;DHT22;39868;53.398;6.564;2024-03-07T15:25:49;9.90;80.90
53962;DHT22;39868;53.398;6.564;2024-03-07T15:28:17;9.90;81.00
53962;DHT22;39868;53.398;6.564;2024-03-07T15:30:44;10.00;81.10
53962;DHT22;39868;53.398;6.564;2024-03-07T15:33:11;10.00;81.20
53962;DHT22;39868;53.398;6.564;2024-03-07T15:35:39;10.00;81.20
53962;DHT22;39868;53.398;6.564;2024-03-07T15:38:06;10.00;81.20
53962;DHT22;39868;53.398;6.564;2024-03-07T15:40:33;10.10;81.30
53962;DHT22;39868;53.398;6.564;2024-03-07T15:43:01;10.10;81.40
53962;DHT22;39868;53.398;6.564;2024-03-07T15:45:29;10.10;81.30
53962;DHT22;39868;53.398;6.564;2024-03-07T15:47:59;10.20;81.20
53962;DHT22;39868;53.398;6.564;2024-03-07T15:50:27;10.20;81.10
53962;DHT22;39868;53.398;6.564;2024-03-07T15:52:58;10.20;81.00
53962;DHT22;39868;53.398;6.564;2024-03-07T15:55:30;10.10;80.90
53962;DHT22;39868;53.398;6.564;2024-03-07T15:58:01;10.10;80.90
53962;DHT22;39868;53.398;6.564;2024-03-07T16:00:33;10.10;80.90
53962;DHT22;39868;53.398;6.564;2024-03-07T16:03:05;10.20;81.10
53962;DHT22;39868;53.398;6.564;2024-03-07T16:05:38;10.20;81.20
53962;DHT22;39868;53.398;6.564;2024-03-07T16:08:08;10.20;81.40
53962;DHT22;39868;53.398;6.564;2024-03-07T16:10:37;10.30;81.40
53962;DHT22;39868;53.398;6.564;2024-03-07T16:13:06;10.40;81.30
53962;DHT22;39868;53.398;6.564;2024-03-07T16:15:35;10.40;81.00
53962;DHT22;39868;53.398;6.564;2024-03-07T16:18:09;10.60;81.00
53962;DHT22;39868;53.398;6.564;2024-03-07T16:20:38;10.60;80.90
53962;DHT22;39868;53.398;6.564;2024-03-07T16:23:07;10.70;80.80
53962;DHT22;39868;53.398;6.564;2024-03-07T16:25:36;10.80;80.70
53962;DHT22;39868;53.398;6.564;2024-03-07T16:28:07;10.80;80.40
53962;DHT22;39868;53.398;6.564;2024-03-07T16:30:35;10.80;80.20
53962;DHT22;39868;53.398;6.564;2024-03-07T16:33:03;10.90;79.90
53962;DHT22;39868;53.398;6.564;2024-03-07T16:35:32;10.80;79.70